Time;durP1;ratioP1;P1;durP2;ratioP2;P2;SDS_P1;SDS_P2;PMS_P1;PMS_P2;Temp;Humidity;BMP_temperature;BMP_pressure;BME280_temperature;BME280_humidity;BME280_pressure;Samples;Min_cycle;Max_cycle;Signal;HPM_P1;HPM_P2
2021/04/13 00:01:33;;;;;;;31.45;28.95;;;;;;;;;;5095375;28;20216;-74
2021/04/13 00:04:12;;;;;;;31.48;28.85;;;;;;;;;;5095898;28;20183;-74
2021/04/13 00:06:43;;;;;;;32.30;29.83;;;;;;;;;;5095123;28;20236;-74
2021/04/13 00:09:13;;;;;;;31.73;29.27;;;;;;;;;;5095368;28;20192;-74
2021/04/13 00:11:40;;;;;;;30.25;27.95;;;;;;;;;;5095374;28;20188;-74
2021/04/13 00:14:09;;;;;;;30.85;28.55;;;;;;;;;;5095302;28;20552;-74
2021/04/13 00:16:36;;;;;;;30.60;28.30;;;;;;;;;;5095532;28;20198;-74
2021/04/13 00:19:06;;;;;;;29.70;27.40;;;;;;;;;;5095464;28;20707;-74
2021/04/13 00:21:34;;;;;;;30.00;27.70;;;;;;;;;;5095443;28;20215;-73
2021/04/13 00:24:04;;;;;;;30.25;27.98;;;;;;;;;;5095442;28;20573;-74
2021/04/13 00:26:32;;;;;;;31.02;28.52;;;;;;;;;;5094021;28;20267;-74
2021/04/13 00:29:01;;;;;;;32.30;29.83;;;;;;;;;;5094996;28;20183;-73
2021/04/13 00:31:41;;;;;;;31.98;29.38;;;;;;;;;;5094893;28;20657;-74
2021/04/13 00:34:10;;;;;;;32.10;29.67;;;;;;;;;;5095219;28;20194;-74
2021/04/13 00:36:36;;;;;;;33.35;30.67;;;;;;;;;;5095068;28;20272;-74
2021/04/13 00:39:14;;;;;;;31.15;28.75;;;;;;;;;;5094895;28;20698;-74
2021/04/13 00:41:43;;;;;;;31.95;29.25;;;;;;;;;;5094739;28;20222;-74
2021/04/13 00:44:11;;;;;;;31.75;29.15;;;;;;;;;;5094698;28;20187;-75
2021/04/13 00:46:41;;;;;;;33.05;30.40;;;;;;;;;;5094640;28;20556;-74
2021/04/13 00:49:09;;;;;;;31.48;29.08;;;;;;;;;;5094936;28;20215;-74
2021/04/13 00:51:36;;;;;;;32.08;29.23;;;;;;;;;;5094444;28;20552;-74
2021/04/13 00:54:05;;;;;;;30.77;28.45;;;;;;;;;;5094542;28;20187;-74
2021/04/13 00:56:33;;;;;;;32.50;29.90;;;;;;;;;;5094611;28;20194;-74
2021/04/13 00:59:03;;;;;;;31.92;29.42;;;;;;;;;;5094724;28;20191;-74
2021/04/13 01:01:32;;;;;;;31.42;28.90;;;;;;;;;;5094565;28;20565;-74
2021/04/13 01:04:02;;;;;;;31.55;28.85;;;;;;;;;;5094638;28;20191;-74
2021/04/13 01:06:30;;;;;;;31.73;29.23;;;;;;;;;;5094525;28;20247;-74
2021/04/13 01:09:02;;;;;;;31.75;29.10;;;;;;;;;;5094142;28;20268;-74
2021/04/13 01:11:31;;;;;;;33.17;30.75;;;;;;;;;;5094143;28;20187;-74
2021/04/13 01:14:01;;;;;;;33.10;30.42;;;;;;;;;;5094532;28;20188;-74
2021/04/13 01:16:29;;;;;;;30.85;28.48;;;;;;;;;;5094223;28;20255;-74
2021/04/13 01:18:57;;;;;;;32.58;29.55;;;;;;;;;;5092737;28;20657;-74
2021/04/13 01:21:33;;;;;;;31.70;28.98;;;;;;;;;;5092812;28;20234;-74
2021/04/13 01:24:08;;;;;;;31.27;28.80;;;;;;;;;;5094296;28;20191;-74
2021/04/13 01:26:36;;;;;;;31.52;29.02;;;;;;;;;;5093407;28;20194;-74
2021/04/13 01:29:05;;;;;;;30.13;27.92;;;;;;;;;;5092633;28;20657;-74
2021/04/13 01:31:45;;;;;;;31.02;28.63;;;;;;;;;;5094192;28;20191;-74
2021/04/13 01:34:14;;;;;;;30.90;28.52;;;;;;;;;;5093853;28;20191;-74
2021/04/13 01:36:45;;;;;;;31.05;28.65;;;;;;;;;;5092811;28;20206;-74
2021/04/13 01:39:16;;;;;;;31.00;28.48;;;;;;;;;;5094068;28;20192;-75
2021/04/13 01:44:29;;;;;;;32.47;29.88;;;;;;;;;;5094492;28;20555;-74
2021/04/13 01:46:56;;;;;;;30.73;28.23;;;;;;;;;;5093369;28;20207;-74
2021/04/13 01:49:23;;;;;;;32.83;30.20;;;;;;;;;;5093830;28;20187;-74
2021/04/13 01:51:51;;;;;;;32.00;29.30;;;;;;;;;;5093920;28;20241;-74
2021/04/13 01:54:19;;;;;;;33.42;30.63;;;;;;;;;;5093400;28;20191;-74
2021/04/13 01:56:57;;;;;;;33.95;31.23;;;;;;;;;;5093811;28;20183;-74
2021/04/13 01:59:26;;;;;;;30.88;28.45;;;;;;;;;;5093863;28;20190;-74
2021/04/13 02:01:57;;;;;;;30.77;28.40;;;;;;;;;;5093424;28;20222;-73
2021/04/13 02:04:26;;;;;;;31.42;28.90;;;;;;;;;;5093815;28;20202;-74
2021/04/13 02:06:57;;;;;;;30.42;28.00;;;;;;;;;;5093797;28;20187;-74
2021/04/13 02:09:28;;;;;;;32.03;29.23;;;;;;;;;;5093850;28;20191;-74
2021/04/13 02:11:56;;;;;;;31.35;28.77;;;;;;;;;;5092589;28;20207;-74
2021/04/13 02:14:25;;;;;;;31.60;29.00;;;;;;;;;;5093788;28;20187;-74
2021/04/13 02:16:54;;;;;;;33.10;30.27;;;;;;;;;;5093197;28;20222;-73
2021/04/13 02:19:24;;;;;;;32.10;29.30;;;;;;;;;;5093645;28;20241;-74
2021/04/13 02:21:52;;;;;;;31.60;28.90;;;;;;;;;;5093263;28;20234;-74
2021/04/13 02:24:21;;;;;;;33.15;30.42;;;;;;;;;;5093286;28;20192;-74
2021/04/13 02:26:49;;;;;;;32.20;29.48;;;;;;;;;;5093534;28;20194;-74
2021/04/13 02:29:17;;;;;;;31.70;29.00;;;;;;;;;;5093188;28;20663;-74
2021/04/13 02:31:53;;;;;;;31.25;28.75;;;;;;;;;;5093293;28;20249;-74
2021/04/13 02:34:21;;;;;;;32.08;29.58;;;;;;;;;;5093509;28;20191;-74
2021/04/13 02:36:50;;;;;;;31.83;29.20;;;;;;;;;;5093214;28;20188;-74
2021/04/13 02:39:18;;;;;;;31.13;28.77;;;;;;;;;;5095133;28;20625;-74
2021/04/13 02:41:47;;;;;;;32.13;29.38;;;;;;;;;;5097353;28;20222;-74
2021/04/13 02:44:17;;;;;;;34.55;31.75;;;;;;;;;;5097140;28;20206;-74
2021/04/13 02:46:44;;;;;;;32.85;29.92;;;;;;;;;;5097324;28;20190;-74
2021/04/13 02:49:12;;;;;;;32.58;29.75;;;;;;;;;;5096877;28;20195;-74
2021/04/13 02:51:41;;;;;;;32.72;30.13;;;;;;;;;;5097278;28;20211;-74
2021/04/13 02:54:13;;;;;;;31.42;28.92;;;;;;;;;;5096927;28;20198;-74
2021/04/13 02:56:42;;;;;;;32.03;29.52;;;;;;;;;;5096742;28;20652;-74
2021/04/13 02:59:18;;;;;;;32.85;30.17;;;;;;;;;;5097138;28;20195;-74
2021/04/13 03:01:49;;;;;;;32.47;29.77;;;;;;;;;;5095528;28;20584;-74
2021/04/13 03:04:17;;;;;;;30.98;28.60;;;;;;;;;;5096790;28;20191;-74
2021/04/13 03:06:46;;;;;;;31.83;29.15;;;;;;;;;;5097292;28;20187;-74
2021/04/13 03:09:15;;;;;;;33.75;30.73;;;;;;;;;;5096812;28;20233;-74
2021/04/13 03:11:45;;;;;;;31.83;29.25;;;;;;;;;;5096981;28;20215;-74
2021/04/13 03:14:12;;;;;;;33.45;30.55;;;;;;;;;;5096217;28;20183;-74
2021/04/13 03:16:41;;;;;;;33.33;30.70;;;;;;;;;;5096353;28;20227;-74
2021/04/13 03:19:09;;;;;;;32.00;29.40;;;;;;;;;;5096263;28;20199;-74
2021/04/13 03:21:38;;;;;;;34.63;31.55;;;;;;;;;;5096297;28;20230;-74
2021/04/13 03:24:08;;;;;;;31.95;29.27;;;;;;;;;;5096554;28;20215;-74
2021/04/13 03:26:37;;;;;;;34.85;31.88;;;;;;;;;;5096462;28;20672;-74
2021/04/13 03:29:05;;;;;;;32.83;30.00;;;;;;;;;;5096180;28;20191;-74
2021/04/13 03:31:32;;;;;;;32.40;29.80;;;;;;;;;;5096173;28;20210;-74
2021/04/13 03:34:00;;;;;;;32.00;29.60;;;;;;;;;;5096843;28;20198;-74
2021/04/13 03:36:27;;;;;;;32.25;29.63;;;;;;;;;;5096298;28;20273;-74
2021/04/13 03:38:56;;;;;;;33.78;30.88;;;;;;;;;;5096041;28;20192;-74
2021/04/13 03:41:24;;;;;;;32.22;29.70;;;;;;;;;;5096219;28;20248;-74
2021/04/13 03:43:59;;;;;;;32.92;30.20;;;;;;;;;;5095025;28;20203;-74
2021/04/13 03:46:28;;;;;;;34.20;31.40;;;;;;;;;;5094625;28;20198;-74
2021/04/13 03:48:55;;;;;;;35.50;32.33;;;;;;;;;;5095557;28;20203;-74
2021/04/13 03:51:24;;;;;;;33.30;30.60;;;;;;;;;;5095633;28;20590;-74
2021/04/13 03:53:51;;;;;;;33.63;30.83;;;;;;;;;;5096001;28;20190;-73
2021/04/13 03:56:19;;;;;;;33.33;30.52;;;;;;;;;;5095356;28;20588;-74
2021/04/13 03:58:47;;;;;;;33.47;30.60;;;;;;;;;;5095894;28;20191;-74
2021/04/13 04:01:18;;;;;;;31.95;29.40;;;;;;;;;;5095839;28;20214;-74
2021/04/13 04:03:45;;;;;;;34.03;30.98;;;;;;;;;;5095832;28;20196;-74
2021/04/13 04:06:16;;;;;;;33.38;30.38;;;;;;;;;;5095791;28;20191;-74
2021/04/13 04:08:47;;;;;;;32.55;29.90;;;;;;;;;;5095411;28;20548;-74
2021/04/13 04:11:14;;;;;;;32.47;29.88;;;;;;;;;;5095332;28;20251;-74
2021/04/13 04:13:49;;;;;;;35.08;31.95;;;;;;;;;;5095425;28;20191;-74
2021/04/13 04:16:19;;;;;;;33.90;31.00;;;;;;;;;;5095572;28;20279;-73
2021/04/13 04:18:47;;;;;;;35.55;32.53;;;;;;;;;;5095353;28;20196;-74
2021/04/13 04:21:18;;;;;;;33.08;30.25;;;;;;;;;;5095186;28;20207;-74
2021/04/13 04:23:45;;;;;;;33.28;30.65;;;;;;;;;;5095218;28;20194;-74
2021/04/13 04:26:20;;;;;;;34.72;31.73;;;;;;;;;;5095670;28;20187;-74
2021/04/13 04:28:47;;;;;;;33.20;30.30;;;;;;;;;;5095107;28;20191;-74
2021/04/13 04:31:34;;;;;;;34.22;31.17;;;;;;;;;;5094959;28;20637;-74
2021/04/13 04:34:02;;;;;;;36.03;32.95;;;;;;;;;;5095000;28;20643;-74
2021/04/13 04:36:29;;;;;;;35.45;32.47;;;;;;;;;;5093950;28;20248;-73
2021/04/13 04:38:57;;;;;;;35.05;32.10;;;;;;;;;;5095066;28;20187;-74
2021/04/13 04:41:44;;;;;;;37.25;33.92;;;;;;;;;;5094718;28;20218;-74
2021/04/13 04:44:20;;;;;;;36.17;32.90;;;;;;;;;;5090259;28;20202;-74
2021/04/13 04:46:48;;;;;;;35.75;32.53;;;;;;;;;;5094484;28;20190;-74
2021/04/13 04:49:16;;;;;;;36.75;33.55;;;;;;;;;;5095027;28;20194;-74
2021/04/13 04:51:44;;;;;;;37.20;33.78;;;;;;;;;;5094671;28;20198;-74
2021/04/13 04:54:11;;;;;;;37.00;33.65;;;;;;;;;;5094711;28;20194;-74
2021/04/13 04:56:37;;;;;;;35.78;32.58;;;;;;;;;;5094360;28;20636;-74
2021/04/13 04:59:04;;;;;;;35.65;32.65;;;;;;;;;;5093322;28;20572;-74
2021/04/13 05:01:31;;;;;;;37.60;34.30;;;;;;;;;;5093588;28;20672;-73
2021/04/13 05:03:59;;;;;;;35.25;31.95;;;;;;;;;;5094660;28;20236;-73
2021/04/13 05:06:27;;;;;;;35.92;33.03;;;;;;;;;;5094828;28;20194;-74
2021/04/13 05:08:54;;;;;;;36.28;33.05;;;;;;;;;;5094510;28;20183;-74
2021/04/13 05:11:22;;;;;;;36.38;32.97;;;;;;;;;;5094255;28;20183;-74
2021/04/13 05:13:49;;;;;;;37.88;34.22;;;;;;;;;;5094476;28;20190;-73
2021/04/13 05:16:15;;;;;;;36.10;33.00;;;;;;;;;;5094368;28;20240;-73
2021/04/13 05:18:42;;;;;;;36.08;32.58;;;;;;;;;;5094846;28;20199;-73
2021/04/13 05:21:10;;;;;;;36.97;33.72;;;;;;;;;;5094226;28;20215;-73
2021/04/13 05:23:37;;;;;;;36.58;33.38;;;;;;;;;;5094109;28;20199;-73
2021/04/13 05:26:05;;;;;;;36.45;33.33;;;;;;;;;;5094139;28;20215;-73
2021/04/13 05:28:32;;;;;;;35.85;32.60;;;;;;;;;;5093917;28;20191;-73
2021/04/13 05:30:59;;;;;;;38.78;35.15;;;;;;;;;;5093869;28;20706;-73
2021/04/13 05:33:26;;;;;;;37.35;34.08;;;;;;;;;;5093401;28;20202;-73
2021/04/13 05:35:53;;;;;;;36.20;32.78;;;;;;;;;;5094137;28;20202;-73
2021/04/13 05:38:23;;;;;;;38.63;35.22;;;;;;;;;;5093794;28;20564;-73
2021/04/13 05:40:50;;;;;;;38.42;34.92;;;;;;;;;;5093685;28;20191;-73
2021/04/13 05:43:18;;;;;;;37.83;34.25;;;;;;;;;;5093735;28;20589;-72
2021/04/13 05:45:47;;;;;;;37.50;34.10;;;;;;;;;;5092677;28;20203;-73
2021/04/13 05:48:14;;;;;;;38.80;35.35;;;;;;;;;;5093902;28;20240;-73
2021/04/13 05:50:42;;;;;;;39.45;35.88;;;;;;;;;;5093364;28;20636;-73
2021/04/13 05:53:09;;;;;;;38.88;35.28;;;;;;;;;;5093586;28;20187;-73
2021/04/13 05:55:38;;;;;;;38.67;35.03;;;;;;;;;;5093368;28;20249;-72
2021/04/13 05:58:05;;;;;;;40.78;36.90;;;;;;;;;;5093550;28;20190;-73
2021/04/13 06:00:33;;;;;;;43.17;39.08;;;;;;;;;;5093507;28;20224;-72
2021/04/13 06:03:00;;;;;;;39.17;35.72;;;;;;;;;;5093850;28;20183;-72
2021/04/13 06:05:28;;;;;;;37.83;34.33;;;;;;;;;;5093786;28;20191;-73
2021/04/13 06:07:55;;;;;;;39.13;35.67;;;;;;;;;;5093815;28;20195;-73
2021/04/13 06:10:22;;;;;;;39.75;36.00;;;;;;;;;;5093752;28;20198;-73
2021/04/13 06:12:54;;;;;;;39.95;36.05;;;;;;;;;;5094658;28;20578;-73
2021/04/13 06:15:21;;;;;;;41.85;37.55;;;;;;;;;;5097642;28;20198;-73
2021/04/13 06:17:48;;;;;;;39.58;36.00;;;;;;;;;;5097664;28;20223;-73
2021/04/13 06:20:16;;;;;;;39.70;36.05;;;;;;;;;;5097780;28;20194;-73
2021/04/13 06:22:43;;;;;;;41.40;37.17;;;;;;;;;;5097404;28;20236;-73
2021/04/13 06:25:10;;;;;;;40.30;36.40;;;;;;;;;;5097591;28;20256;-73
2021/04/13 06:27:37;;;;;;;40.92;37.05;;;;;;;;;;5097555;28;20191;-73
2021/04/13 06:30:06;;;;;;;41.20;37.50;;;;;;;;;;5097235;28;20632;-74
2021/04/13 06:32:33;;;;;;;42.97;38.47;;;;;;;;;;5097258;28;20697;-73
2021/04/13 06:35:00;;;;;;;40.03;36.22;;;;;;;;;;5097533;28;20194;-74
2021/04/13 06:37:27;;;;;;;39.00;35.20;;;;;;;;;;5097139;28;20190;-73
2021/04/13 06:39:54;;;;;;;39.08;35.22;;;;;;;;;;5097105;28;20540;-72
2021/04/13 06:42:35;;;;;;;38.88;35.38;;;;;;;;;;5096959;28;20219;-73
2021/04/13 06:45:10;;;;;;;37.97;34.30;;;;;;;;;;5096922;28;20540;-73
2021/04/13 06:47:49;;;;;;;39.92;36.20;;;;;;;;;;5097338;28;20186;-73
2021/04/13 06:50:20;;;;;;;35.08;31.95;;;;;;;;;;5097207;28;20191;-74
2021/04/13 06:52:52;;;;;;;30.67;28.30;;;;;;;;;;5096896;28;20193;-73
2021/04/13 06:55:25;;;;;;;33.80;30.95;;;;;;;;;;5096720;28;20227;-73
2021/04/13 06:58:01;;;;;;;31.00;28.55;;;;;;;;;;5096935;27;20219;-73
2021/04/13 07:00:38;;;;;;;31.65;29.13;;;;;;;;;;5096660;28;20191;-73
2021/04/13 07:03:13;;;;;;;30.15;27.95;;;;;;;;;;5096925;28;20202;-73
2021/04/13 07:05:42;;;;;;;32.30;29.60;;;;;;;;;;5096550;28;20190;-71
2021/04/13 07:08:14;;;;;;;30.45;27.85;;;;;;;;;;5096846;28;20187;-71
2021/04/13 07:10:44;;;;;;;31.08;28.55;;;;;;;;;;5096768;28;20183;-75
2021/04/13 07:13:15;;;;;;;30.70;28.00;;;;;;;;;;5097268;28;20191;-75
2021/04/13 07:15:46;;;;;;;30.77;28.50;;;;;;;;;;5096720;27;20207;-74
2021/04/13 07:18:18;;;;;;;29.00;26.80;;;;;;;;;;5096648;28;20214;-75
2021/04/13 07:20:53;;;;;;;29.95;27.35;;;;;;;;;;5096240;28;20562;-75
2021/04/13 07:23:23;;;;;;;27.65;25.45;;;;;;;;;;5096220;28;20187;-75
2021/04/13 07:25:52;;;;;;;28.17;25.63;;;;;;;;;;5087827;28;20241;-74
2021/04/13 07:28:23;;;;;;;26.80;24.50;;;;;;;;;;5085834;28;20192;-74
2021/04/13 07:30:53;;;;;;;28.25;25.75;;;;;;;;;;5086857;28;20183;-74
2021/04/13 07:33:21;;;;;;;26.67;24.50;;;;;;;;;;5085231;28;20194;-74
2021/04/13 07:35:48;;;;;;;25.88;24.05;;;;;;;;;;5086903;28;20184;-74
2021/04/13 07:38:18;;;;;;;26.52;24.48;;;;;;;;;;5092895;28;20194;-75
2021/04/13 07:40:46;;;;;;;26.77;24.58;;;;;;;;;;5096024;28;20550;-75
2021/04/13 07:43:19;;;;;;;26.45;24.42;;;;;;;;;;5096144;28;20235;-75
2021/04/13 07:45:50;;;;;;;26.15;24.05;;;;;;;;;;5096321;28;20184;-75
2021/04/13 07:48:32;;;;;;;25.40;23.65;;;;;;;;;;5096091;28;20185;-75
2021/04/13 07:51:08;;;;;;;27.63;24.88;;;;;;;;;;5096102;28;20192;-75
2021/04/13 07:53:39;;;;;;;26.48;24.00;;;;;;;;;;5095125;28;20210;-71
2021/04/13 07:56:09;;;;;;;25.05;23.25;;;;;;;;;;5095544;28;20229;-75
2021/04/13 07:58:40;;;;;;;25.23;22.98;;;;;;;;;;5094513;28;20236;-75
2021/04/13 08:01:08;;;;;;;29.58;26.98;;;;;;;;;;5096033;28;20220;-75
2021/04/13 08:03:37;;;;;;;25.92;23.90;;;;;;;;;;5095973;28;20192;-76
2021/04/13 08:06:05;;;;;;;27.63;25.20;;;;;;;;;;5095580;28;20634;-75
2021/04/13 08:08:33;;;;;;;26.20;24.02;;;;;;;;;;5094339;28;20570;-74
2021/04/13 08:11:11;;;;;;;25.80;23.88;;;;;;;;;;5095676;28;20237;-74
2021/04/13 08:13:38;;;;;;;26.02;24.10;;;;;;;;;;5095797;28;20184;-74
2021/04/13 08:16:06;;;;;;;26.95;24.70;;;;;;;;;;5095148;28;20189;-74
2021/04/13 08:18:41;;;;;;;26.23;24.00;;;;;;;;;;5095267;28;20192;-74
2021/04/13 08:21:16;;;;;;;24.73;22.35;;;;;;;;;;5095398;28;20216;-71
2021/04/13 08:23:43;;;;;;;23.38;21.60;;;;;;;;;;5095451;28;20187;-71
2021/04/13 08:26:28;;;;;;;20.73;19.42;;;;;;;;;;5095352;28;20197;-70
2021/04/13 08:28:57;;;;;;;25.42;23.08;;;;;;;;;;5085313;28;20208;-71
2021/04/13 08:34:27;;;;;;;21.23;19.80;;;;;;;;;;5094851;28;20192;-70
2021/04/13 08:36:59;;;;;;;22.00;20.48;;;;;;;;;;5094055;28;20252;-71
2021/04/13 08:39:28;;;;;;;23.20;21.25;;;;;;;;;;5094870;28;20197;-72
2021/04/13 08:42:00;;;;;;;22.35;20.67;;;;;;;;;;5094811;28;20302;-70
2021/04/13 08:44:35;;;;;;;22.55;20.73;;;;;;;;;;5095015;28;20192;-83
2021/04/13 08:47:03;;;;;;;20.25;19.05;;;;;;;;;;5094951;28;20207;-71
2021/04/13 08:49:40;;;;;;;22.58;20.88;;;;;;;;;;5094472;28;20216;-71
2021/04/13 08:52:31;;;;;;;22.85;21.27;;;;;;;;;;5094539;28;20195;-71
2021/04/13 08:55:04;;;;;;;23.05;21.10;;;;;;;;;;5079577;28;20236;-70
2021/04/13 08:57:34;;;;;;;21.35;20.05;;;;;;;;;;5094402;28;20239;-71
2021/04/13 09:00:02;;;;;;;22.98;21.10;;;;;;;;;;5094670;28;20190;-71
2021/04/13 09:02:31;;;;;;;21.02;19.67;;;;;;;;;;5094677;28;20228;-71
2021/04/13 09:05:05;;;;;;;21.15;19.60;;;;;;;;;;5094289;28;20228;-74
2021/04/13 09:07:38;;;;;;;22.67;20.88;;;;;;;;;;5094350;28;20211;-74
2021/04/13 09:10:14;;;;;;;22.45;20.70;;;;;;;;;;5094514;28;20196;-74
2021/04/13 09:12:42;;;;;;;22.35;20.50;;;;;;;;;;5094339;28;20192;-70
2021/04/13 09:15:14;;;;;;;23.70;21.52;;;;;;;;;;5094222;28;20197;-71
2021/04/13 09:17:42;;;;;;;21.77;20.17;;;;;;;;;;5094319;28;20258;-71
2021/04/13 09:20:16;;;;;;;22.77;21.15;;;;;;;;;;5094154;28;20238;-71
2021/04/13 09:22:50;;;;;;;24.30;22.25;;;;;;;;;;5094023;28;20218;-71
2021/04/13 09:25:28;;;;;;;22.30;20.65;;;;;;;;;;5094026;28;20195;-72
2021/04/13 09:28:01;;;;;;;22.50;20.98;;;;;;;;;;5094153;28;20188;-71
2021/04/13 09:30:30;;;;;;;23.92;22.13;;;;;;;;;;5093868;28;20243;-71
2021/04/13 09:33:21;;;;;;;23.20;21.35;;;;;;;;;;5094185;28;20189;-75
2021/04/13 09:35:54;;;;;;;23.08;21.23;;;;;;;;;;5079117;28;20213;-71
2021/04/13 09:38:28;;;;;;;23.45;21.95;;;;;;;;;;5094069;28;20243;-73
2021/04/13 09:41:01;;;;;;;23.55;21.95;;;;;;;;;;5093541;28;20194;-70
2021/04/13 09:43:33;;;;;;;23.48;21.63;;;;;;;;;;5077304;28;20205;-70
2021/04/13 09:46:01;;;;;;;23.73;21.75;;;;;;;;;;5079194;28;20205;-70
2021/04/13 09:48:58;;;;;;;23.10;21.17;;;;;;;;;;5077513;28;20677;-71
2021/04/13 09:51:28;;;;;;;22.70;20.70;;;;;;;;;;4997718;28;20291;-71
2021/04/13 09:54:13;;;;;;;22.60;21.05;;;;;;;;;;4981600;28;20477;-71
2021/04/13 09:56:52;;;;;;;23.98;22.45;;;;;;;;;;4997830;28;20618;-71
2021/04/13 09:59:29;;;;;;;23.07;21.27;;;;;;;;;;4998015;28;20698;-71
2021/04/13 10:02:00;;;;;;;23.53;21.87;;;;;;;;;;4994081;28;20496;-75
2021/04/13 10:04:37;;;;;;;23.50;21.55;;;;;;;;;;4976587;28;20491;-71
2021/04/13 10:07:16;;;;;;;24.27;21.83;;;;;;;;;;4992095;28;20658;-71
2021/04/13 10:09:43;;;;;;;22.77;20.83;;;;;;;;;;4975753;28;20193;-71
2021/04/13 10:12:34;;;;;;;22.00;20.70;;;;;;;;;;4975904;28;20640;-71
2021/04/13 10:15:13;;;;;;;22.35;20.40;;;;;;;;;;4991821;28;20204;-71
2021/04/13 10:17:53;;;;;;;24.13;21.88;;;;;;;;;;4992204;28;20721;-71
2021/04/13 10:20:26;;;;;;;24.77;22.80;;;;;;;;;;4991805;28;20186;-71
2021/04/13 10:23:01;;;;;;;22.83;21.40;;;;;;;;;;4992491;28;20259;-71
2021/04/13 10:25:58;;;;;;;22.92;21.23;;;;;;;;;;5032264;28;20208;-71
2021/04/13 10:28:43;;;;;;;23.10;21.27;;;;;;;;;;5011162;28;20207;-71
2021/04/13 10:31:28;;;;;;;22.58;20.67;;;;;;;;;;5011580;28;20558;-72
2021/04/13 10:34:10;;;;;;;22.33;20.93;;;;;;;;;;5011254;28;20196;-71
2021/04/13 10:36:55;;;;;;;22.70;20.90;;;;;;;;;;5011386;28;20459;-71
2021/04/13 10:39:46;;;;;;;22.30;20.63;;;;;;;;;;5010528;28;20965;-72
2021/04/13 10:42:30;;;;;;;21.90;20.25;;;;;;;;;;4997072;28;20530;-71
2021/04/13 10:45:20;;;;;;;22.50;20.77;;;;;;;;;;5011793;28;20580;-72
2021/04/13 10:48:05;;;;;;;22.13;20.63;;;;;;;;;;5011239;28;20926;-72
2021/04/13 10:50:48;;;;;;;23.55;22.02;;;;;;;;;;4994895;28;20201;-71
2021/04/13 10:53:32;;;;;;;22.10;20.40;;;;;;;;;;5011294;28;20214;-72
2021/04/13 10:56:07;;;;;;;23.17;21.47;;;;;;;;;;5010877;28;20476;-71
2021/04/13 10:58:53;;;;;;;22.80;21.30;;;;;;;;;;5009884;28;20447;-71
2021/04/13 11:01:36;;;;;;;23.00;21.08;;;;;;;;;;5014966;28;20216;-71
2021/04/13 11:04:21;;;;;;;21.90;20.60;;;;;;;;;;5076867;28;20629;-71
2021/04/13 11:07:20;;;;;;;22.10;20.53;;;;;;;;;;5076484;28;20473;-71
2021/04/13 11:09:57;;;;;;;21.90;20.70;;;;;;;;;;5076560;28;20726;-71
2021/04/13 11:12:43;;;;;;;23.03;21.23;;;;;;;;;;5076196;28;20415;-71
2021/04/13 11:15:30;;;;;;;23.70;22.17;;;;;;;;;;5076197;28;20452;-71
2021/04/13 11:17:59;;;;;;;24.07;22.13;;;;;;;;;;5070581;28;20480;-71
2021/04/13 11:20:46;;;;;;;23.20;21.70;;;;;;;;;;5076293;28;20417;-72
2021/04/13 11:23:31;;;;;;;23.17;21.70;;;;;;;;;;5050850;28;20492;-72
2021/04/13 11:26:13;;;;;;;26.63;24.80;;;;;;;;;;5076947;28;20464;-71
2021/04/13 11:28:58;;;;;;;23.53;22.00;;;;;;;;;;5075912;28;20462;-72
2021/04/13 11:31:45;;;;;;;22.80;21.40;;;;;;;;;;5074854;28;20434;-72
2021/04/13 11:34:27;;;;;;;22.87;21.37;;;;;;;;;;5076140;28;20404;-72
2021/04/13 11:37:09;;;;;;;24.10;22.50;;;;;;;;;;5073783;28;20435;-72
2021/04/13 11:39:39;;;;;;;24.00;22.47;;;;;;;;;;5075479;28;20445;-72
2021/04/13 11:42:17;;;;;;;23.97;22.17;;;;;;;;;;5075634;28;20454;-72
2021/04/13 11:44:48;;;;;;;24.60;22.90;;;;;;;;;;5074459;28;20418;-72
2021/04/13 11:47:18;;;;;;;23.67;22.27;;;;;;;;;;5075587;28;20409;-72
2021/04/13 11:49:47;;;;;;;23.73;22.27;;;;;;;;;;5075465;28;20444;-72
2021/04/13 11:52:20;;;;;;;23.13;21.70;;;;;;;;;;5076066;28;20449;-72
2021/04/13 11:54:49;;;;;;;22.90;21.40;;;;;;;;;;5075103;28;20931;-72
2021/04/13 11:57:18;;;;;;;24.00;22.33;;;;;;;;;;5075611;28;20445;-72
2021/04/13 12:00:06;;;;;;;23.80;22.10;;;;;;;;;;5075326;28;20498;-72
2021/04/13 12:02:33;;;;;;;23.77;22.27;;;;;;;;;;5075104;28;20496;-72
2021/04/13 12:05:01;;;;;;;22.70;21.20;;;;;;;;;;5075154;28;20403;-71
2021/04/13 12:07:49;;;;;;;22.30;21.03;;;;;;;;;;5075392;28;20475;-71
2021/04/13 12:10:30;;;;;;;23.20;21.80;;;;;;;;;;5070352;28;20432;-71
2021/04/13 12:12:59;;;;;;;22.57;21.27;;;;;;;;;;5074964;28;20815;-72
2021/04/13 12:15:40;;;;;;;23.60;22.03;;;;;;;;;;5075158;28;20466;-71
2021/04/13 12:18:25;;;;;;;23.50;22.00;;;;;;;;;;5075663;28;20484;-72
2021/04/13 12:20:52;;;;;;;23.70;22.20;;;;;;;;;;5075492;28;20449;-71
2021/04/13 12:23:38;;;;;;;23.43;21.87;;;;;;;;;;5074937;28;20454;-72
2021/04/13 12:26:06;;;;;;;23.83;22.20;;;;;;;;;;5075203;28;20438;-71
2021/04/13 12:28:50;;;;;;;23.57;22.07;;;;;;;;;;5074907;28;20424;-71
2021/04/13 12:31:23;;;;;;;23.93;22.03;;;;;;;;;;5075203;28;20516;-71
2021/04/13 12:33:52;;;;;;;23.50;22.00;;;;;;;;;;5074801;28;20408;-71
2021/04/13 12:36:38;;;;;;;23.97;22.50;;;;;;;;;;5075082;28;20404;-71
2021/04/13 12:39:05;;;;;;;23.53;21.90;;;;;;;;;;5074894;28;20449;-71
2021/04/13 12:41:34;;;;;;;24.47;22.97;;;;;;;;;;5074535;28;20478;-71
2021/04/13 12:44:03;;;;;;;23.13;21.63;;;;;;;;;;5074429;28;20785;-71
2021/04/13 12:46:39;;;;;;;23.30;21.90;;;;;;;;;;5074822;28;20773;-71
2021/04/13 12:49:07;;;;;;;23.00;21.40;;;;;;;;;;5074126;28;20522;-71
2021/04/13 12:51:36;;;;;;;22.83;21.20;;;;;;;;;;5074418;28;20423;-72
2021/04/13 12:54:13;;;;;;;23.90;22.30;;;;;;;;;;5074403;28;20507;-71
2021/04/13 12:56:41;;;;;;;23.20;21.60;;;;;;;;;;5074520;28;20913;-72
2021/04/13 12:59:10;;;;;;;22.73;21.40;;;;;;;;;;5074530;28;20429;-71
2021/04/13 13:01:41;;;;;;;22.80;21.40;;;;;;;;;;5074461;28;20459;-71
2021/04/13 13:04:10;;;;;;;23.40;22.00;;;;;;;;;;5074190;28;20434;-72
2021/04/13 13:06:39;;;;;;;23.63;22.13;;;;;;;;;;5074418;28;20420;-71
2021/04/13 13:09:08;;;;;;;22.20;20.60;;;;;;;;;;5074020;28;20419;-71
2021/04/13 13:11:35;;;;;;;23.57;21.97;;;;;;;;;;5074387;28;20842;-72
2021/04/13 13:14:03;;;;;;;24.23;22.43;;;;;;;;;;5074346;28;20412;-72
2021/04/13 13:16:31;;;;;;;22.20;20.80;;;;;;;;;;5074149;28;20459;-71
2021/04/13 13:18:58;;;;;;;23.87;22.17;;;;;;;;;;5074120;28;20512;-72
2021/04/13 13:21:25;;;;;;;22.90;21.40;;;;;;;;;;5074141;28;20499;-71
2021/04/13 13:23:54;;;;;;;23.60;22.00;;;;;;;;;;5073572;28;20432;-71
2021/04/13 13:26:22;;;;;;;23.93;22.47;;;;;;;;;;5073682;28;20897;-72
2021/04/13 13:28:49;;;;;;;22.93;21.53;;;;;;;;;;5074792;28;20781;-72
2021/04/13 13:31:18;;;;;;;23.30;21.70;;;;;;;;;;5073684;28;20463;-72
2021/04/13 13:33:45;;;;;;;23.87;22.37;;;;;;;;;;5073772;28;20431;-72
2021/04/13 13:36:13;;;;;;;23.57;22.23;;;;;;;;;;5073987;28;20437;-72
2021/04/13 13:38:41;;;;;;;24.03;22.53;;;;;;;;;;5073965;28;20411;-72
2021/04/13 13:41:09;;;;;;;25.13;23.40;;;;;;;;;;5073909;28;20441;-72
2021/04/13 13:43:36;;;;;;;24.10;22.50;;;;;;;;;;5073903;28;20481;-72
2021/04/13 13:46:21;;;;;;;23.73;22.13;;;;;;;;;;5073574;28;20470;-72
2021/04/13 13:48:49;;;;;;;23.83;22.17;;;;;;;;;;5073567;28;20477;-72
2021/04/13 13:51:25;;;;;;;23.30;21.90;;;;;;;;;;5078447;28;20447;-71
2021/04/13 13:53:54;;;;;;;23.13;21.83;;;;;;;;;;5072547;28;20429;-71
2021/04/13 13:56:29;;;;;;;22.90;21.50;;;;;;;;;;5072262;28;20874;-71
2021/04/13 13:59:24;;;;;;;23.50;21.80;;;;;;;;;;5072736;28;20404;-72
2021/04/13 14:01:58;;;;;;;24.33;22.50;;;;;;;;;;5072748;28;20520;-71
2021/04/13 14:04:27;;;;;;;23.37;21.67;;;;;;;;;;5073170;28;20434;-73
2021/04/13 14:06:54;;;;;;;23.27;21.83;;;;;;;;;;5072176;28;20928;-72
2021/04/13 14:09:21;;;;;;;22.43;21.00;;;;;;;;;;5073957;28;20444;-71
2021/04/13 14:11:48;;;;;;;23.30;21.70;;;;;;;;;;5073536;28;20418;-72
2021/04/13 14:14:30;;;;;;;23.30;21.90;;;;;;;;;;5074040;28;20442;-72
2021/04/13 14:16:58;;;;;;;22.53;21.23;;;;;;;;;;5073410;28;20473;-71
2021/04/13 14:19:32;;;;;;;22.97;21.57;;;;;;;;;;5055740;28;20448;-71
2021/04/13 14:22:00;;;;;;;23.57;21.83;;;;;;;;;;5073380;28;20456;-71
2021/04/13 14:24:29;;;;;;;23.33;22.03;;;;;;;;;;5073164;28;20405;-72
2021/04/13 14:27:14;;;;;;;24.00;22.60;;;;;;;;;;5072992;28;20994;-71
2021/04/13 14:29:41;;;;;;;23.60;22.30;;;;;;;;;;5073129;28;20785;-71
2021/04/13 14:32:09;;;;;;;22.90;21.53;;;;;;;;;;5072168;28;20415;-71
2021/04/13 14:34:37;;;;;;;23.33;21.80;;;;;;;;;;5075994;28;20430;-71
2021/04/13 14:37:09;;;;;;;23.20;21.80;;;;;;;;;;5077303;28;20427;-71
2021/04/13 14:39:36;;;;;;;23.77;22.13;;;;;;;;;;5076861;28;20441;-71
2021/04/13 14:42:03;;;;;;;24.00;22.40;;;;;;;;;;5076764;28;20474;-71
2021/04/13 14:44:30;;;;;;;23.10;21.30;;;;;;;;;;5076050;28;20469;-71
2021/04/13 14:46:57;;;;;;;23.47;22.10;;;;;;;;;;5076524;28;20825;-71
2021/04/13 14:49:24;;;;;;;22.60;21.00;;;;;;;;;;5076692;28;20839;-71